Airfield :
LOGIN :

Register | Disclaimer

   EN    FR    IT 

 










Legend :    VFR   Marginal VFR   IFR   Intensive IFR   Very Intensive IFR
Visi :
Ceiling :
>= 8 km
>= 3000ft
5 to 8 km
1000 to 3000 ft
1500m to 5 km
500 to 1000 ft
800 to 1500m
200 to 500 ft
< 800m
< 200 ft
Symbols :   Thunderstorms  Fog  Heavy snow  Heavy precipitations  Wind > 20 kt
SIGMETs :     Misc.  Thunderstorms  Icing  Turbulence  Mountain Waves  Volcanic Ashes






- Airport Elevation : 1276 ft
- IATA code : STR


EDDS - Stuttgart

CURRENT METAR :
  • 200420Z AUTO 28009KT 9999 FEW022 OVC047 04/01 Q1014 TEMPO SHRA

EXPIRED METARs :
  • 200350Z AUTO 27009KT 9999 FEW016 BKN049 04/01 Q1013
  • 200320Z AUTO 27013KT 9999 FEW016 BKN049 04/01 Q1013
  • 200250Z AUTO 26010KT 9999 BKN043 04/01 Q1013
  • 200220Z AUTO 27009KT 9999 FEW044 04/01 Q1013
  • 200150Z AUTO 27009KT 9999 SCT021 SCT037 04/02 Q1012
  • 200120Z AUTO 28013KT 9999 FEW019 SCT041 04/02 Q1012
  • 200050Z AUTO 28013KT 9999 SCT029 SCT038 BKN044 04/02 Q1012
  • 200020Z AUTO 27011KT 9999 FEW025 BKN032 OVC042 05/02 Q1012
  • 192350Z AUTO 25011G23KT 220V290 9999 -SHRA FEW006 BKN034 OVC047 FEW///CB 04/02 Q1012 RESHRA

TAF TAF EDDS
Valid from the 20 at 00:00 until the 21 at 00:00 UTC


192300Z 2000/2024 29010KT 9999 BKN040
PROB30
TEMPO 2000/2004 SHRA BKN012TCU
TEMPO 2011/2020 SHRA BKN020CB
PROB30
TEMPO 2012/2018 TSRA
PROB40
TEMPO 2020/2024 BKN010



MET'MAP, your aeronautical weather chart ! - Copyright ORBIFLY December 2007 - Disclaimer

ORBIFLY MET'MAP TEAM :

Programming & Development : Alexandra Zaïnal
Original concept : Baudouin d'Aumeries
Technical & hardware support : Manuel Goepfert
Assistance : Marc-Olivier Méhu




SOURCES & CREDITS :

   NOAA